Time;durP1;ratioP1;P1;durP2;ratioP2;P2;SDS_P1;SDS_P2;PMS_P1;PMS_P2;Temp;Humidity;BMP_temperature;BMP_pressure;BME280_temperature;BME280_humidity;BME280_pressure;Samples;Min_cycle;Max_cycle;Signal;HPM_P1;HPM_P2
2024/01/19 00:01:16;;;;;;;11.77;5.47;;;-0.30;99.90;;;;;;5010868;28;20045;-65
2024/01/19 00:03:42;;;;;;;12.15;4.32;;;-0.20;99.90;;;;;;5006223;28;20041;-66
2024/01/19 00:06:07;;;;;;;14.35;4.65;;;0.00;99.90;;;;;;5010060;28;20049;-65
2024/01/19 00:08:33;;;;;;;10.77;4.22;;;0.10;99.90;;;;;;5012215;28;20487;-65
2024/01/19 00:10:58;;;;;;;10.55;4.80;;;0.00;99.90;;;;;;5012061;28;20401;-65
2024/01/19 00:13:24;;;;;;;11.15;4.25;;;0.00;99.90;;;;;;5000052;28;20065;-65
2024/01/19 00:15:52;;;;;;;12.10;4.15;;;0.00;99.90;;;;;;5005145;28;20477;-64
2024/01/19 00:18:17;;;;;;;8.52;4.78;;;-0.10;99.90;;;;;;5010680;28;20077;-65
2024/01/19 00:20:43;;;;;;;10.73;3.90;;;-0.10;99.90;;;;;;5006939;28;20445;-65
2024/01/19 00:23:09;;;;;;;10.68;4.10;;;-0.20;99.90;;;;;;5004923;28;20046;-65
2024/01/19 00:25:34;;;;;;;8.80;4.22;;;-0.30;99.90;;;;;;5011465;28;20037;-65
2024/01/19 00:28:00;;;;;;;9.52;4.20;;;-0.30;99.90;;;;;;5012149;28;20038;-64
2024/01/19 00:30:25;;;;;;;9.98;4.32;;;-0.40;99.90;;;;;;4999297;28;20112;-65
2024/01/19 00:32:51;;;;;;;10.70;4.30;;;-0.30;99.90;;;;;;5008482;28;20034;-63
2024/01/19 00:35:16;;;;;;;7.38;4.15;;;-0.30;99.90;;;;;;5011691;28;20076;-63
2024/01/19 00:37:42;;;;;;;12.23;4.30;;;-0.40;99.90;;;;;;5006244;28;20049;-63
2024/01/19 00:40:11;;;;;;;8.73;4.10;;;-0.40;99.90;;;;;;5001369;28;20118;-65
2024/01/19 00:42:42;;;;;;;11.27;4.25;;;-0.50;99.90;;;;;;5011509;28;20111;-65
2024/01/19 00:45:09;;;;;;;6.97;3.43;;;-0.50;99.90;;;;;;5007655;28;20407;-65
2024/01/19 00:47:35;;;;;;;9.77;4.13;;;-0.60;99.90;;;;;;5010994;28;20066;-64
2024/01/19 00:50:02;;;;;;;8.98;4.05;;;-0.60;99.90;;;;;;5011651;28;20536;-65
2024/01/19 00:52:28;;;;;;;11.93;4.70;;;-0.60;99.90;;;;;;5010074;28;20050;-65
2024/01/19 00:54:53;;;;;;;11.48;4.85;;;-0.70;99.90;;;;;;4998894;28;20037;-65
2024/01/19 00:57:19;;;;;;;16.00;4.50;;;-0.70;99.90;;;;;;5001602;28;20104;-64
2024/01/19 00:59:44;;;;;;;14.05;4.22;;;-0.70;99.90;;;;;;5011793;28;20038;-63
2024/01/19 01:02:10;;;;;;;12.07;4.82;;;-0.80;99.90;;;;;;5008887;28;20038;-63
2024/01/19 01:04:35;;;;;;;11.55;4.60;;;-0.70;99.90;;;;;;5003295;28;20119;-63
2024/01/19 01:07:01;;;;;;;14.95;5.53;;;-0.70;99.90;;;;;;5011234;28;20049;-65
2024/01/19 01:09:27;;;;;;;14.18;5.03;;;-0.70;99.90;;;;;;5011728;28;20046;-63
2024/01/19 01:11:53;;;;;;;9.07;4.50;;;-0.70;99.90;;;;;;5006887;28;20533;-63
2024/01/19 01:14:18;;;;;;;11.02;5.18;;;-0.70;99.90;;;;;;5007651;28;20076;-63
2024/01/19 01:16:44;;;;;;;16.48;5.18;;;-0.80;99.90;;;;;;5011795;28;20045;-63
2024/01/19 01:19:10;;;;;;;11.43;4.47;;;-0.80;99.90;;;;;;5004609;28;20520;-63
2024/01/19 01:21:35;;;;;;;13.38;5.18;;;-0.80;99.90;;;;;;5004723;28;20045;-63
2024/01/19 01:24:01;;;;;;;9.30;4.97;;;-0.90;99.90;;;;;;5010742;28;20038;-63
2024/01/19 01:26:27;;;;;;;10.90;5.45;;;-0.90;99.90;;;;;;5014712;28;20386;-64
2024/01/19 01:28:52;;;;;;;12.75;4.95;;;-0.90;99.90;;;;;;5002535;28;20037;-63
2024/01/19 01:31:18;;;;;;;11.60;5.30;;;-1.00;99.90;;;;;;5011742;28;20044;-64
2024/01/19 01:33:44;;;;;;;8.23;4.82;;;-1.00;99.90;;;;;;5015264;28;20116;-63
2024/01/19 01:36:10;;;;;;;12.15;4.65;;;-1.10;99.90;;;;;;5006978;28;20042;-63
2024/01/19 01:38:35;;;;;;;9.13;4.28;;;-0.90;99.90;;;;;;5008326;28;20484;-64
2024/01/19 01:41:01;;;;;;;14.40;4.95;;;-1.00;99.90;;;;;;5015275;28;20050;-64
2024/01/19 01:43:27;;;;;;;8.70;4.57;;;-0.90;99.90;;;;;;5009978;28;20061;-63
2024/01/19 01:45:52;;;;;;;11.45;4.40;;;-0.90;99.90;;;;;;5008939;28;20038;-65
2024/01/19 01:48:24;;;;;;;14.77;4.75;;;-0.90;99.90;;;;;;5011454;28;20056;-65
2024/01/19 01:50:50;;;;;;;7.60;4.40;;;-0.80;99.90;;;;;;5014951;28;20029;-64
2024/01/19 01:53:19;;;;;;;7.40;4.00;;;-0.80;99.90;;;;;;5006358;28;20100;-65
2024/01/19 01:55:46;;;;;;;9.20;4.15;;;-0.80;99.90;;;;;;5014037;28;20048;-64
2024/01/19 01:58:13;;;;;;;10.35;4.00;;;-0.80;99.90;;;;;;5014627;28;20104;-63
2024/01/19 02:00:41;;;;;;;9.50;4.40;;;-0.70;99.90;;;;;;5009397;28;20117;-64
2024/01/19 02:03:08;;;;;;;11.73;4.72;;;-0.70;99.90;;;;;;5011317;28;20073;-63
2024/01/19 02:05:33;;;;;;;9.68;4.43;;;-0.60;99.90;;;;;;5013810;28;20052;-63
2024/01/19 02:07:59;;;;;;;8.00;4.03;;;-0.50;99.90;;;;;;5015035;28;20404;-64
2024/01/19 02:10:24;;;;;;;9.60;3.95;;;-0.50;99.90;;;;;;5010181;28;20084;-63
2024/01/19 02:12:50;;;;;;;8.68;4.20;;;-0.40;99.90;;;;;;5007827;28;20034;-64
2024/01/19 02:15:23;;;;;;;9.43;3.17;;;-0.30;99.90;;;;;;5014323;28;20040;-64
2024/01/19 02:17:50;;;;;;;9.38;4.10;;;-0.30;99.90;;;;;;5005840;28;20100;-63
2024/01/19 02:20:16;;;;;;;7.95;3.50;;;-0.30;99.90;;;;;;5009505;28;20050;-63
2024/01/19 02:22:46;;;;;;;8.77;3.63;;;-0.30;99.90;;;;;;5014083;28;20045;-63
2024/01/19 02:25:12;;;;;;;9.65;3.60;;;-0.20;99.90;;;;;;5014530;28;20065;-63
2024/01/19 02:27:38;;;;;;;8.93;3.85;;;-0.10;99.90;;;;;;5009734;28;20026;-64
2024/01/19 02:30:07;;;;;;;15.07;4.03;;;-0.10;99.90;;;;;;5013781;28;20519;-63
2024/01/19 02:32:32;;;;;;;9.77;3.78;;;-0.10;99.90;;;;;;5013590;28;20520;-63
2024/01/19 02:34:58;;;;;;;11.63;3.97;;;-0.20;99.90;;;;;;4997686;28;20074;-63
2024/01/19 02:37:23;;;;;;;10.23;4.07;;;-0.20;99.90;;;;;;5003052;28;20493;-63
2024/01/19 02:39:49;;;;;;;10.18;3.80;;;-0.30;99.90;;;;;;5013914;28;20492;-63
2024/01/19 02:42:15;;;;;;;7.93;3.67;;;-0.30;99.90;;;;;;5099082;22;20052;-68
2024/01/19 02:45:22;;;;;;;9.55;3.90;;;-0.30;99.90;;;;;;5059407;28;20060;-69
2024/01/19 02:51:29;;;;;;;7.82;3.58;;;-0.30;99.90;;;;;;5042876;28;20052;-68
2024/01/19 02:56:38;;;;;;;9.45;3.85;;;-0.40;99.90;;;;;;5038528;26;20083;-69
2024/01/19 02:59:07;;;;;;;9.07;3.83;;;-0.40;99.90;;;;;;5052684;28;20041;-68
2024/01/19 03:01:33;;;;;;;11.10;4.43;;;-0.20;99.90;;;;;;5023835;28;20471;-68
2024/01/19 03:03:59;;;;;;;8.18;3.80;;;0.00;99.90;;;;;;5030557;28;20069;-71
2024/01/19 03:06:25;;;;;;;7.53;3.80;;;0.00;99.90;;;;;;5023029;28;20042;-69
2024/01/19 03:08:50;;;;;;;10.02;4.00;;;0.10;99.90;;;;;;5028981;28;20086;-71
2024/01/19 03:11:17;;;;;;;10.05;4.03;;;0.10;99.90;;;;;;5029010;28;20045;-66
2024/01/19 03:13:42;;;;;;;11.07;3.97;;;0.20;99.90;;;;;;5031990;28;20052;-68
2024/01/19 03:16:08;;;;;;;9.55;4.07;;;0.30;99.90;;;;;;5031191;28;20049;-69
2024/01/19 03:18:35;;;;;;;9.70;3.63;;;0.30;99.90;;;;;;5006552;28;20073;-69
2024/01/19 03:21:00;;;;;;;7.07;3.53;;;0.30;99.90;;;;;;5031390;28;20045;-69
2024/01/19 03:23:26;;;;;;;5.50;3.20;;;0.30;99.90;;;;;;5029660;28;20044;-68
2024/01/19 03:25:51;;;;;;;10.13;3.90;;;0.30;99.90;;;;;;5026124;28;20048;-69
2024/01/19 03:28:17;;;;;;;11.38;3.45;;;0.30;99.90;;;;;;5033377;28;20515;-68
2024/01/19 03:30:43;;;;;;;8.63;3.25;;;0.30;99.90;;;;;;5033824;28;20060;-69
2024/01/19 03:33:08;;;;;;;8.38;3.50;;;0.30;99.90;;;;;;5026508;28;20052;-69
2024/01/19 03:35:34;;;;;;;6.78;3.25;;;0.30;99.90;;;;;;5031551;28;20037;-69
2024/01/19 03:38:00;;;;;;;7.93;3.08;;;0.20;99.90;;;;;;5032042;28;20124;-69
2024/01/19 03:40:25;;;;;;;7.72;2.83;;;0.10;99.90;;;;;;5030495;28;20171;-68
2024/01/19 03:42:51;;;;;;;6.60;3.10;;;0.10;99.90;;;;;;5027423;28;20554;-68
2024/01/19 03:45:16;;;;;;;6.85;3.28;;;0.00;99.90;;;;;;5033002;28;20041;-68
2024/01/19 03:47:45;;;;;;;8.20;3.40;;;0.00;99.90;;;;;;5031850;28;20045;-68
2024/01/19 03:50:10;;;;;;;7.10;2.97;;;0.00;99.90;;;;;;5019443;28;20049;-68
2024/01/19 03:52:37;;;;;;;13.45;2.92;;;0.00;99.90;;;;;;5024925;28;20244;-68
2024/01/19 03:55:07;;;;;;;5.57;3.00;;;-0.10;99.90;;;;;;5032316;28;20443;-68
2024/01/19 03:57:50;;;;;;;9.45;2.78;;;-0.10;99.90;;;;;;5027182;28;20045;-68
2024/01/19 04:00:15;;;;;;;6.47;2.88;;;-0.10;99.90;;;;;;5022798;28;20052;-76
2024/01/19 04:02:41;;;;;;;6.18;3.03;;;-0.10;99.90;;;;;;5030944;28;20041;-69
2024/01/19 04:05:07;;;;;;;6.82;2.72;;;-0.10;99.90;;;;;;5034006;28;20589;-68
2024/01/19 04:07:32;;;;;;;6.30;2.75;;;0.00;99.90;;;;;;5022548;28;20369;-68
2024/01/19 04:09:58;;;;;;;6.63;2.70;;;0.00;99.90;;;;;;5031737;28;20049;-68
2024/01/19 04:12:23;;;;;;;4.10;2.40;;;0.00;99.90;;;;;;5030556;28;20065;-69
2024/01/19 04:14:56;;;;;;;6.25;2.80;;;0.00;99.90;;;;;;5026966;28;20108;-70
2024/01/19 04:17:21;;;;;;;3.63;2.20;;;-0.10;99.90;;;;;;5015888;28;20068;-68
2024/01/19 04:19:47;;;;;;;6.28;2.78;;;-0.10;99.90;;;;;;5032852;28;20068;-69
2024/01/19 04:22:12;;;;;;;5.38;2.60;;;-0.20;99.90;;;;;;5030894;28;20033;-68
2024/01/19 04:24:38;;;;;;;4.65;2.50;;;-0.20;99.90;;;;;;5044545;28;20041;-69
2024/01/19 04:27:04;;;;;;;8.07;3.00;;;-0.20;99.90;;;;;;5031307;28;20048;-69
2024/01/19 04:29:29;;;;;;;6.97;2.65;;;-0.30;99.90;;;;;;5030235;28;20514;-69
2024/01/19 04:31:56;;;;;;;6.95;2.42;;;-0.30;99.90;;;;;;5021183;28;20048;-69
2024/01/19 04:34:22;;;;;;;6.22;2.60;;;-0.40;99.90;;;;;;5029459;28;20045;-69
2024/01/19 04:36:47;;;;;;;5.38;2.63;;;-0.40;99.90;;;;;;5031830;28;20037;-68
2024/01/19 04:39:17;;;;;;;5.50;2.50;;;-0.40;99.90;;;;;;5050642;28;20037;-68
2024/01/19 04:41:42;;;;;;;6.00;2.38;;;-0.40;99.90;;;;;;5027091;28;20380;-69
2024/01/19 04:44:08;;;;;;;5.30;2.75;;;-0.40;99.90;;;;;;5030055;28;20052;-68
2024/01/19 04:46:33;;;;;;;5.25;2.67;;;-0.40;99.90;;;;;;5029470;28;20041;-70
2024/01/19 04:48:59;;;;;;;8.32;2.80;;;-0.30;99.90;;;;;;5019772;28;20518;-68
2024/01/19 04:51:24;;;;;;;4.88;2.72;;;-0.30;99.90;;;;;;5401827;22;20114;-68
2024/01/19 04:53:50;;;;;;;5.35;2.60;;;-0.30;99.90;;;;;;5042161;28;20491;-69
2024/01/19 04:56:15;;;;;;;5.78;2.92;;;-0.30;99.90;;;;;;5016751;28;20050;-69
2024/01/19 04:58:41;;;;;;;6.50;2.83;;;-0.30;99.90;;;;;;5013560;28;20049;-68
2024/01/19 05:08:30;;;;;;;4.75;3.47;;;-0.20;99.90;;;;;;5077141;22;20400;-63
2024/01/19 05:10:55;;;;;;;6.85;4.18;;;-0.10;99.90;;;;;;5070035;28;20033;-63
2024/01/19 05:13:21;;;;;;;9.15;4.57;;;0.00;99.90;;;;;;5062541;28;20091;-63
2024/01/19 05:15:46;;;;;;;7.55;4.55;;;0.10;99.90;;;;;;5053921;28;20091;-63
2024/01/19 05:18:12;;;;;;;10.70;4.55;;;0.20;99.90;;;;;;5050091;28;20041;-63
2024/01/19 05:20:38;;;;;;;11.25;4.78;;;0.30;99.90;;;;;;5058893;28;20063;-66
2024/01/19 05:23:04;;;;;;;9.00;4.72;;;0.30;99.90;;;;;;5034714;28;20132;-66
2024/01/19 05:25:30;;;;;;;6.55;3.67;;;0.40;99.90;;;;;;5059084;28;20048;-66
2024/01/19 05:27:56;;;;;;;9.02;4.28;;;0.40;99.90;;;;;;5047902;28;20037;-62
2024/01/19 05:30:22;;;;;;;7.00;3.63;;;0.30;99.90;;;;;;5049441;28;20143;-63
2024/01/19 05:32:48;;;;;;;9.23;4.28;;;0.20;99.90;;;;;;5031496;28;20033;-63
2024/01/19 05:35:13;;;;;;;10.77;3.70;;;0.10;99.90;;;;;;5050775;28;20098;-65
2024/01/19 05:37:39;;;;;;;8.00;3.50;;;0.00;99.90;;;;;;5048038;28;20025;-65
2024/01/19 05:40:05;;;;;;;6.88;3.55;;;-0.10;99.90;;;;;;5065203;28;20102;-64
2024/01/19 05:42:31;;;;;;;5.65;3.35;;;-0.10;99.90;;;;;;5058876;28;20040;-63
2024/01/19 05:44:56;;;;;;;8.25;3.10;;;-0.20;99.90;;;;;;5060618;28;20033;-63
2024/01/19 05:47:22;;;;;;;5.53;3.10;;;-0.20;99.90;;;;;;5050015;28;20336;-63
2024/01/19 05:49:47;;;;;;;7.50;3.30;;;-0.30;99.90;;;;;;5052306;28;20159;-65
2024/01/19 05:52:13;;;;;;;7.55;3.50;;;-0.40;99.90;;;;;;5065935;28;20056;-65
2024/01/19 05:54:39;;;;;;;7.72;3.80;;;-0.50;99.90;;;;;;5039830;28;20124;-63
2024/01/19 05:57:04;;;;;;;7.68;4.20;;;-0.60;99.90;;;;;;5057815;28;20040;-63
2024/01/19 05:59:30;;;;;;;8.32;4.55;;;-0.70;99.90;;;;;;5058068;28;20032;-63
2024/01/19 06:01:56;;;;;;;10.15;5.00;;;-0.80;99.90;;;;;;5047167;28;20174;-63
2024/01/19 06:04:22;;;;;;;9.48;5.75;;;-0.80;99.90;;;;;;5056629;28;20513;-63
2024/01/19 06:06:47;;;;;;;7.20;4.70;;;-0.90;99.90;;;;;;5057365;28;20025;-63
2024/01/19 06:09:13;;;;;;;10.82;5.60;;;-0.90;99.90;;;;;;5048167;28;20552;-63
2024/01/19 06:11:39;;;;;;;11.40;5.32;;;-1.10;99.90;;;;;;5051346;28;20033;-63
2024/01/19 06:14:05;;;;;;;8.85;4.50;;;-1.10;99.90;;;;;;5069044;28;20041;-63
2024/01/19 06:16:30;;;;;;;9.60;5.03;;;-1.10;99.90;;;;;;5071048;28;20082;-63
2024/01/19 06:18:58;;;;;;;7.95;4.18;;;-1.10;99.90;;;;;;5053178;28;20055;-64
2024/01/19 06:21:23;;;;;;;7.22;4.30;;;-1.10;99.90;;;;;;5042627;28;20067;-62
2024/01/19 06:23:49;;;;;;;8.18;4.57;;;-1.20;99.90;;;;;;5066122;28;20510;-63
2024/01/19 06:26:15;;;;;;;6.90;3.58;;;-1.20;99.90;;;;;;5059851;28;20372;-63
2024/01/19 06:28:41;;;;;;;5.70;2.88;;;-1.20;99.90;;;;;;5061507;28;20044;-63
2024/01/19 06:31:10;;;;;;;7.65;3.08;;;-1.30;99.90;;;;;;5069125;28;20506;-63
2024/01/19 06:33:35;;;;;;;6.68;2.72;;;-1.20;99.90;;;;;;5054257;28;20059;-62
2024/01/19 06:36:06;;;;;;;6.72;3.53;;;-1.10;99.90;;;;;;5056999;28;20044;-65
2024/01/19 06:38:31;;;;;;;3.38;2.45;;;-1.20;99.90;;;;;;5067698;28;20131;-63
2024/01/19 06:40:57;;;;;;;5.70;2.58;;;-1.20;99.90;;;;;;5073784;28;20119;-63
2024/01/19 06:43:23;;;;;;;5.65;2.40;;;-1.10;99.90;;;;;;5061381;28;20132;-64
2024/01/19 06:45:48;;;;;;;5.53;2.28;;;-1.00;99.90;;;;;;5055958;28;20124;-64
2024/01/19 06:48:14;;;;;;;5.60;2.20;;;-0.90;99.90;;;;;;5051955;28;20037;-65
2024/01/19 06:50:39;;;;;;;5.72;2.38;;;-0.80;99.90;;;;;;5073798;28;20080;-65
2024/01/19 06:53:06;;;;;;;6.18;2.45;;;-0.80;99.90;;;;;;5061398;28;20124;-65
2024/01/19 06:55:32;;;;;;;3.85;2.22;;;-0.70;99.90;;;;;;5072038;28;20044;-64
2024/01/19 06:57:57;;;;;;;5.50;2.00;;;-0.70;99.90;;;;;;5055432;28;20043;-65
2024/01/19 07:00:23;;;;;;;6.43;2.00;;;-0.60;99.90;;;;;;5060773;28;20171;-63
2024/01/19 07:02:49;;;;;;;7.13;1.90;;;-0.40;99.90;;;;;;5064935;28;20045;-64
2024/01/19 07:05:15;;;;;;;4.78;2.00;;;-0.20;99.90;;;;;;5072324;28;20041;-64
2024/01/19 07:07:41;;;;;;;8.20;1.80;;;0.00;99.90;;;;;;5070723;28;20048;-62
2024/01/19 07:10:07;;;;;;;4.18;1.70;;;0.10;99.90;;;;;;5067488;28;20040;-65
2024/01/19 07:12:33;;;;;;;3.90;1.67;;;0.20;99.90;;;;;;5060188;28;20090;-62
2024/01/19 07:14:58;;;;;;;12.52;2.10;;;0.20;99.90;;;;;;5053317;28;20041;-65
2024/01/19 07:17:24;;;;;;;6.50;1.80;;;0.20;99.90;;;;;;5051073;28;20108;-65
2024/01/19 07:19:49;;;;;;;5.47;1.88;;;0.20;99.90;;;;;;5063830;28;20040;-65
2024/01/19 07:22:15;;;;;;;6.47;2.00;;;0.20;99.90;;;;;;5051461;28;20574;-64
2024/01/19 07:24:41;;;;;;;4.80;1.75;;;0.20;99.90;;;;;;5052410;28;20059;-65
2024/01/19 07:27:06;;;;;;;3.97;1.70;;;0.20;99.90;;;;;;5060789;28;20171;-65
2024/01/19 07:29:32;;;;;;;7.20;2.20;;;0.10;99.90;;;;;;5052743;28;20128;-65
2024/01/19 07:31:57;;;;;;;8.90;2.33;;;0.00;99.90;;;;;;5065292;28;20036;-65
2024/01/19 07:34:23;;;;;;;5.10;2.30;;;0.00;99.90;;;;;;5051712;28;20561;-64
2024/01/19 07:36:49;;;;;;;6.40;2.47;;;-0.10;99.90;;;;;;5050997;28;20074;-64
2024/01/19 07:39:15;;;;;;;5.78;1.88;;;-0.20;99.90;;;;;;5051385;28;20123;-64
2024/01/19 07:41:43;;;;;;;4.00;2.30;;;-0.30;99.90;;;;;;5050339;28;20055;-64
2024/01/19 07:44:08;;;;;;;6.40;2.42;;;-0.40;99.90;;;;;;5044215;28;20071;-65
2024/01/19 07:46:35;;;;;;;4.65;2.13;;;-0.40;99.90;;;;;;5048947;28;20126;-63
2024/01/19 07:49:01;;;;;;;9.88;2.33;;;-0.50;99.90;;;;;;5062811;28;20041;-65
2024/01/19 07:51:27;;;;;;;5.88;2.40;;;-0.50;99.90;;;;;;5054070;28;20036;-64
2024/01/19 07:53:54;;;;;;;4.30;1.90;;;-0.60;99.90;;;;;;5051592;28;20033;-64
2024/01/19 07:56:20;;;;;;;8.05;2.17;;;-0.60;99.90;;;;;;5051069;28;20045;-64
2024/01/19 07:58:45;;;;;;;3.60;1.63;;;-0.60;99.90;;;;;;5051376;28;20052;-64
2024/01/19 08:01:11;;;;;;;3.10;1.88;;;-0.60;99.90;;;;;;5053068;28;20120;-65
2024/01/19 08:03:38;;;;;;;6.43;2.40;;;-0.60;99.90;;;;;;5068130;28;20036;-65
2024/01/19 08:06:04;;;;;;;5.22;2.10;;;-0.70;99.90;;;;;;5057149;28;20045;-62
2024/01/19 08:08:30;;;;;;;5.80;2.28;;;-0.70;99.90;;;;;;5050387;28;20098;-63
2024/01/19 08:10:55;;;;;;;6.75;2.22;;;-0.70;99.90;;;;;;5051086;28;20514;-63
2024/01/19 08:13:21;;;;;;;4.88;2.00;;;-0.70;99.90;;;;;;5051413;28;20111;-63
2024/01/19 08:15:47;;;;;;;4.32;1.98;;;-0.70;99.90;;;;;;5051341;28;20065;-63
2024/01/19 08:18:13;;;;;;;4.38;2.15;;;-0.70;99.90;;;;;;5058072;28;20033;-64
2024/01/19 08:20:38;;;;;;;5.55;2.10;;;-0.60;99.90;;;;;;5055673;28;20331;-64
2024/01/19 08:23:04;;;;;;;3.58;2.35;;;-0.50;99.90;;;;;;5051226;28;20113;-63
2024/01/19 08:25:30;;;;;;;4.18;2.35;;;-0.50;99.90;;;;;;5058243;28;20605;-65
2024/01/19 08:27:55;;;;;;;3.80;2.15;;;-0.40;99.90;;;;;;5056710;28;20044;-65
2024/01/19 08:30:21;;;;;;;5.25;2.47;;;-0.30;99.90;;;;;;5049763;28;20041;-64
2024/01/19 08:32:47;;;;;;;6.65;2.35;;;-0.30;99.90;;;;;;5054839;28;20033;-62
2024/01/19 08:35:12;;;;;;;4.72;2.13;;;-0.20;99.90;;;;;;5050098;28;20499;-63
2024/01/19 08:37:39;;;;;;;6.47;2.00;;;-0.10;99.90;;;;;;5050749;28;20454;-63
2024/01/19 08:40:10;;;;;;;4.63;2.30;;;0.00;99.90;;;;;;5049668;28;20506;-63
2024/01/19 08:42:36;;;;;;;3.88;2.30;;;0.10;99.90;;;;;;5056679;28;20045;-63
2024/01/19 08:45:02;;;;;;;4.10;2.30;;;0.10;99.90;;;;;;5050201;28;20041;-65
2024/01/19 08:47:28;;;;;;;9.38;2.88;;;0.10;99.90;;;;;;5032490;28;20050;-65
2024/01/19 08:49:53;;;;;;;6.05;2.30;;;0.10;99.90;;;;;;5051400;28;20044;-65
2024/01/19 08:52:19;;;;;;;6.47;2.60;;;0.10;99.90;;;;;;5052580;28;20041;-65
2024/01/19 08:54:44;;;;;;;5.57;2.45;;;0.00;99.90;;;;;;5050541;28;20048;-63
2024/01/19 08:57:10;;;;;;;8.85;2.65;;;0.00;99.90;;;;;;5048360;28;20063;-63
2024/01/19 08:59:36;;;;;;;6.63;2.28;;;0.00;99.90;;;;;;5053976;28;20044;-63
2024/01/19 09:02:01;;;;;;;5.85;2.65;;;0.00;99.90;;;;;;5032086;28;20041;-64
2024/01/19 09:04:27;;;;;;;6.72;2.63;;;0.10;99.90;;;;;;5050427;28;20095;-64
2024/01/19 09:06:55;;;;;;;6.15;2.80;;;0.10;99.90;;;;;;5053307;28;20182;-63
2024/01/19 09:09:21;;;;;;;8.50;3.20;;;0.10;99.90;;;;;;5066796;28;20078;-65
2024/01/19 09:11:47;;;;;;;5.72;2.40;;;0.10;99.90;;;;;;5050498;28;20121;-65
2024/01/19 09:14:13;;;;;;;9.05;2.72;;;0.20;99.90;;;;;;5051124;28;20507;-65
2024/01/19 09:16:44;;;;;;;5.15;2.45;;;0.10;99.90;;;;;;5062609;28;20037;-65
2024/01/19 09:19:11;;;;;;;9.25;3.03;;;0.10;99.90;;;;;;5050549;28;20033;-64
2024/01/19 09:21:39;;;;;;;7.35;2.70;;;0.20;99.90;;;;;;5049140;28;20033;-65
2024/01/19 09:24:05;;;;;;;6.60;2.85;;;0.20;99.90;;;;;;5060682;28;20032;-65
2024/01/19 09:26:31;;;;;;;6.50;2.88;;;0.30;99.90;;;;;;5055521;28;20495;-65
2024/01/19 09:28:56;;;;;;;6.07;3.40;;;0.30;99.90;;;;;;5064561;28;20550;-66
2024/01/19 09:31:22;;;;;;;12.30;3.22;;;0.40;99.90;;;;;;5056435;28;20044;-65
2024/01/19 09:33:48;;;;;;;7.53;3.40;;;0.40;99.90;;;;;;5067640;28;20035;-65
2024/01/19 09:36:13;;;;;;;6.78;3.30;;;0.40;99.90;;;;;;5068794;28;20068;-64
2024/01/19 09:38:39;;;;;;;6.55;3.15;;;0.50;99.90;;;;;;5068423;28;20037;-64
2024/01/19 09:41:38;;;;;;;10.98;3.70;;;0.50;99.90;;;;;;5061395;28;20521;-65
2024/01/19 09:44:10;;;;;;;8.68;3.70;;;0.60;99.90;;;;;;5063828;28;20063;-66
2024/01/19 09:46:51;;;;;;;12.93;4.53;;;0.60;99.90;;;;;;5060744;28;20145;-65
2024/01/19 09:49:39;;;;;;;10.05;3.92;;;0.60;99.90;;;;;;5049218;28;20045;-64
2024/01/19 09:52:20;;;;;;;10.20;4.72;;;0.70;99.90;;;;;;5059204;28;20072;-66
2024/01/19 09:54:46;;;;;;;12.25;4.78;;;0.70;99.90;;;;;;5034694;28;20052;-65
2024/01/19 09:57:11;;;;;;;9.75;4.85;;;0.80;99.90;;;;;;5038651;28;20095;-65
2024/01/19 09:59:37;;;;;;;14.32;5.15;;;0.80;99.90;;;;;;5073319;28;20056;-65
2024/01/19 10:02:06;;;;;;;8.80;5.40;;;0.90;99.90;;;;;;5073982;28;20457;-65
2024/01/19 10:04:31;;;;;;;13.77;6.00;;;0.90;99.90;;;;;;5058428;28;20045;-65
2024/01/19 10:06:57;;;;;;;13.65;5.63;;;0.90;99.90;;;;;;5049486;28;20046;-64
2024/01/19 10:09:23;;;;;;;12.73;5.47;;;1.00;99.90;;;;;;5072148;28;20043;-64
2024/01/19 10:11:51;;;;;;;11.35;5.72;;;1.10;99.90;;;;;;5072846;28;20124;-63
2024/01/19 10:14:20;;;;;;;20.73;6.35;;;1.10;99.90;;;;;;5063946;28;20085;-64
2024/01/19 10:16:50;;;;;;;15.82;5.60;;;1.20;99.90;;;;;;5073391;28;20081;-64
2024/01/19 10:19:16;;;;;;;13.20;5.40;;;1.20;99.90;;;;;;5073359;28;20029;-64
2024/01/19 10:21:43;;;;;;;12.02;5.78;;;1.30;99.90;;;;;;5044172;28;20071;-65
2024/01/19 10:24:19;;;;;;;13.88;5.90;;;1.40;99.90;;;;;;5065295;28;20048;-66
2024/01/19 10:26:55;;;;;;;12.98;5.40;;;1.40;99.90;;;;;;5054304;28;20120;-66
2024/01/19 10:29:21;;;;;;;13.68;6.03;;;1.50;99.90;;;;;;5051715;28;20491;-66
2024/01/19 10:31:49;;;;;;;11.95;6.13;;;1.50;99.90;;;;;;5070117;28;20398;-65
2024/01/19 10:34:23;;;;;;;12.38;6.13;;;1.50;99.90;;;;;;5071631;28;20044;-65
2024/01/19 10:36:50;;;;;;;15.13;6.50;;;1.60;99.90;;;;;;5048914;28;20056;-64
2024/01/19 10:39:21;;;;;;;14.48;5.38;;;1.70;99.90;;;;;;5066281;28;20033;-65
2024/01/19 10:41:47;;;;;;;9.05;5.35;;;1.70;99.90;;;;;;5069293;28;20033;-66
2024/01/19 10:44:20;;;;;;;12.32;4.93;;;1.70;99.90;;;;;;5068671;28;20389;-66
2024/01/19 10:46:49;;;;;;;14.68;4.88;;;1.60;99.90;;;;;;5065199;28;20025;-64
2024/01/19 10:49:17;;;;;;;10.43;5.13;;;1.60;99.90;;;;;;5073816;28;20040;-63
2024/01/19 10:51:46;;;;;;;9.68;5.28;;;1.60;99.90;;;;;;5065415;28;20406;-64
2024/01/19 10:54:23;;;;;;;12.15;5.25;;;1.60;99.90;;;;;;5066090;28;20036;-64
2024/01/19 10:56:50;;;;;;;13.55;5.10;;;1.60;99.90;;;;;;5046706;28;20483;-64
2024/01/19 10:59:16;;;;;;;12.00;5.10;;;1.70;99.90;;;;;;5065634;28;20045;-64
2024/01/19 11:01:42;;;;;;;10.93;4.95;;;1.70;99.90;;;;;;5063447;28;20036;-64
2024/01/19 11:04:09;;;;;;;11.15;5.00;;;1.80;99.90;;;;;;5047747;28;20495;-64
2024/01/19 11:06:39;;;;;;;10.80;4.95;;;1.90;99.90;;;;;;5060027;28;20399;-63
2024/01/19 11:09:08;;;;;;;9.43;4.55;;;1.90;99.90;;;;;;5098451;22;20040;-70
2024/01/19 11:11:39;;;;;;;11.48;4.35;;;2.00;99.90;;;;;;5030521;28;20441;-71
2024/01/19 11:14:08;;;;;;;8.48;4.13;;;1.90;99.90;;;;;;5053705;28;20033;-71
2024/01/19 11:16:46;;;;;;;9.63;4.15;;;1.90;99.90;;;;;;5038610;28;20044;-71
2024/01/19 11:19:13;;;;;;;11.05;5.18;;;2.00;99.90;;;;;;5071581;28;20036;-70
2024/01/19 11:22:20;;;;;;;10.32;4.50;;;2.10;99.90;;;;;;5040240;28;20439;-71
2024/01/19 11:24:48;;;;;;;13.85;4.43;;;2.20;99.90;;;;;;5017910;28;20068;-72
2024/01/19 11:27:43;;;;;;;10.18;4.07;;;2.30;99.90;;;;;;5046933;28;20040;-71
2024/01/19 11:30:26;;;;;;;9.10;4.13;;;2.40;99.90;;;;;;5025544;28;20053;-72
2024/01/19 11:32:52;;;;;;;10.30;4.07;;;2.40;99.90;;;;;;5043948;28;20122;-72
2024/01/19 11:35:42;;;;;;;12.48;4.50;;;2.40;99.90;;;;;;5059292;28;20070;-72
2024/01/19 11:41:49;;;;;;;9.50;3.60;;;2.60;99.90;;;;;;5050512;28;20125;-72
2024/01/19 11:44:43;;;;;;;6.72;3.80;;;2.60;99.90;;;;;;5026204;28;20045;-71
2024/01/19 11:47:29;;;;;;;7.72;3.78;;;2.70;99.90;;;;;;5020659;28;20516;-72
2024/01/19 11:49:55;;;;;;;6.60;3.95;;;2.80;99.90;;;;;;5011869;28;20048;-72
2024/01/19 11:52:20;;;;;;;11.07;3.90;;;2.90;99.90;;;;;;5012793;28;20038;-72
2024/01/19 11:54:46;;;;;;;12.15;4.30;;;2.90;99.90;;;;;;5025496;28;20036;-72
2024/01/19 11:57:19;;;;;;;25.67;4.47;;;2.90;99.90;;;;;;5025289;28;20069;-72
2024/01/19 11:59:45;;;;;;;10.93;3.97;;;3.00;99.90;;;;;;5047364;28;20040;-72
2024/01/19 12:02:21;;;;;;;9.60;4.78;;;3.10;99.90;;;;;;5022074;28;20045;-72
2024/01/19 12:04:48;;;;;;;8.15;4.20;;;3.10;99.90;;;;;;5018063;28;20079;-72
2024/01/19 12:07:18;;;;;;;14.00;3.97;;;3.10;99.90;;;;;;5018043;28;20121;-73
2024/01/19 12:09:44;;;;;;;9.18;4.00;;;3.20;99.90;;;;;;5023849;28;20033;-73
2024/01/19 12:12:10;;;;;;;10.23;4.18;;;3.20;99.90;;;;;;5024275;28;20479;-72
2024/01/19 12:14:36;;;;;;;12.27;3.90;;;3.30;99.90;;;;;;5064161;28;20115;-72
2024/01/19 12:17:02;;;;;;;11.05;4.10;;;3.40;99.90;;;;;;5064929;28;20178;-72
2024/01/19 12:19:30;;;;;;;11.25;4.03;;;3.40;99.90;;;;;;5016829;28;20037;-72
2024/01/19 12:21:57;;;;;;;13.85;3.85;;;3.50;99.90;;;;;;5039919;28;20091;-72
2024/01/19 12:24:22;;;;;;;9.88;3.80;;;3.50;99.90;;;;;;5051188;28;20056;-72
2024/01/19 12:26:53;;;;;;;12.68;3.75;;;3.60;99.90;;;;;;5027039;28;20041;-75
2024/01/19 12:29:32;;;;;;;11.20;3.23;;;3.60;99.90;;;;;;5031766;28;20063;-72
2024/01/19 12:32:17;;;;;;;10.30;3.30;;;3.70;99.90;;;;;;5033266;28;20403;-72
2024/01/19 12:34:56;;;;;;;16.05;3.58;;;3.70;99.90;;;;;;5005763;28;20544;-72
2024/01/19 12:37:23;;;;;;;10.60;3.78;;;3.70;99.90;;;;;;5025106;28;20074;-72
2024/01/19 12:39:49;;;;;;;8.82;3.13;;;3.80;99.90;;;;;;5033935;28;20044;-74
2024/01/19 12:42:15;;;;;;;8.23;3.25;;;3.80;99.90;;;;;;5045051;28;20034;-73
2024/01/19 12:44:42;;;;;;;9.48;2.95;;;3.80;99.90;;;;;;5009231;28;20036;-72
2024/01/19 12:47:07;;;;;;;14.25;3.55;;;3.90;99.90;;;;;;5055392;28;20411;-72
2024/01/19 12:49:33;;;;;;;12.50;3.38;;;3.90;99.90;;;;;;5033579;28;20045;-72
2024/01/19 12:55:51;;;;;;;10.48;3.30;;;3.90;99.90;;;;;;5058831;28;20052;-73
2024/01/19 12:58:22;;;;;;;6.45;2.78;;;4.00;99.90;;;;;;4997352;28;20526;-72
2024/01/19 13:00:48;;;;;;;10.13;3.03;;;4.00;99.90;;;;;;5000971;28;20044;-72
2024/01/19 13:03:22;;;;;;;11.32;2.88;;;4.00;99.90;;;;;;5023257;28;20290;-72
2024/01/19 13:05:49;;;;;;;10.48;2.92;;;4.00;99.90;;;;;;4996857;28;20045;-72
2024/01/19 13:08:18;;;;;;;11.07;2.72;;;4.00;99.90;;;;;;5011315;28;20491;-76
2024/01/19 13:10:44;;;;;;;9.80;2.88;;;4.10;99.90;;;;;;5017348;28;20059;-72